createdAt,value
2022-08-27T00:01:27.950Z,19.57
2022-08-27T00:06:33.485Z,18.83
2022-08-27T00:11:40.687Z,18.23
2022-08-27T00:16:47.799Z,18.33
2022-08-27T00:21:53.566Z,17.30
2022-08-27T00:26:59.662Z,18.90
2022-08-27T00:32:05.751Z,19.17
2022-08-27T00:37:11.494Z,19.40
2022-08-27T00:42:17.145Z,21.77
2022-08-27T00:47:26.040Z,21.37
2022-08-27T00:52:51.633Z,19.00
2022-08-27T00:58:06.099Z,18.23
2022-08-27T01:03:11.864Z,19.63
2022-08-27T01:08:20.614Z,17.60
2022-08-27T01:13:58.954Z,17.30
2022-08-27T01:18:39.532Z,18.00
2022-08-27T01:23:55.829Z,16.77
2022-08-27T01:29:02.011Z,20.93
2022-08-27T01:34:08.089Z,23.03
2022-08-27T01:39:13.651Z,27.03
2022-08-27T01:44:21.025Z,31.07
2022-08-27T01:49:26.747Z,40.00
2022-08-27T01:54:34.078Z,37.30
2022-08-27T01:59:40.124Z,38.23
2022-08-27T02:04:46.394Z,36.97
2022-08-27T02:09:52.365Z,37.57
2022-08-27T02:14:58.035Z,37.23
2022-08-27T02:20:04.536Z,33.90
2022-08-27T02:25:13.650Z,30.77
2022-08-27T02:30:21.354Z,29.00
2022-08-27T02:35:27.667Z,23.17
2022-08-27T02:40:33.551Z,23.40
2022-08-27T02:45:39.301Z,21.13
2022-08-27T02:50:45.586Z,18.63
2022-08-27T02:55:52.389Z,15.23
2022-08-27T03:00:58.160Z,14.17
2022-08-27T03:06:04.232Z,14.27
2022-08-27T03:11:09.899Z,13.03
2022-08-27T03:16:17.229Z,12.20
2022-08-27T03:21:25.820Z,12.17
2022-08-27T03:26:32.940Z,11.73
2022-08-27T03:31:38.679Z,12.73
2022-08-27T03:36:44.374Z,11.93
2022-08-27T03:41:54.872Z,12.73
2022-08-27T03:47:00.316Z,12.60
2022-08-27T03:52:06.085Z,10.80
2022-08-27T03:57:11.756Z,11.17
2022-08-27T04:02:17.320Z,10.80
2022-08-27T04:07:22.886Z,11.50
2022-08-27T04:12:28.449Z,11.07
2022-08-27T04:17:34.525Z,12.00
2022-08-27T04:22:40.407Z,12.40
2022-08-27T04:27:45.965Z,11.77
2022-08-27T04:32:51.867Z,11.47
2022-08-27T04:37:57.808Z,12.57
2022-08-27T04:43:03.373Z,14.47
2022-08-27T04:48:09.262Z,12.37
2022-08-27T04:53:17.257Z,11.73
2022-08-27T04:58:24.883Z,12.50
2022-08-27T05:03:30.543Z,11.73
2022-08-27T05:08:36.317Z,11.07
2022-08-27T05:13:43.829Z,11.97
2022-08-27T05:18:50.931Z,11.30
2022-08-27T05:23:58.943Z,11.83
2022-08-27T05:29:06.649Z,11.23
2022-08-27T05:34:15.444Z,11.13
2022-08-27T05:39:19.973Z,12.33
2022-08-27T05:44:41.987Z,12.17
2022-08-27T05:49:33.024Z,13.20
2022-08-27T05:54:39.902Z,13.93
2022-08-27T06:00:03.601Z,13.87
2022-08-27T06:05:11.051Z,13.63
2022-08-27T06:10:17.089Z,14.10
2022-08-27T06:15:22.858Z,15.07
2022-08-27T06:20:28.442Z,14.03
2022-08-27T06:25:34.189Z,14.70
2022-08-27T06:30:40.015Z,13.77
2022-08-27T06:35:45.976Z,12.60
2022-08-27T06:40:54.467Z,11.70
2022-08-27T06:46:03.356Z,12.27
2022-08-27T06:51:17.096Z,11.63
2022-08-27T06:56:23.689Z,12.07
2022-08-27T07:01:37.985Z,12.07
2022-08-27T07:06:43.584Z,12.13
2022-08-27T07:11:49.400Z,13.67
2022-08-27T07:16:55.542Z,12.87
2022-08-27T07:22:01.099Z,14.57
2022-08-27T07:27:07.152Z,15.37
2022-08-27T07:32:13.151Z,18.13
2022-08-27T07:37:18.715Z,16.60
2022-08-27T07:42:42.527Z,17.23
2022-08-27T07:47:48.687Z,16.07
2022-08-27T07:52:54.868Z,17.80
2022-08-27T07:58:01.163Z,18.40
2022-08-27T08:03:06.751Z,18.03
2022-08-27T08:08:13.017Z,20.00
2022-08-27T08:13:20.496Z,19.27
2022-08-27T08:18:26.815Z,18.67
2022-08-27T08:23:34.204Z,18.27
2022-08-27T08:28:41.602Z,16.87
2022-08-27T08:33:49.829Z,16.57
2022-08-27T08:38:56.108Z,16.53
2022-08-27T08:44:05.797Z,16.27
2022-08-27T08:49:17.474Z,15.07
2022-08-27T08:54:27.144Z,14.83
2022-08-27T08:59:41.931Z,16.27
2022-08-27T09:04:47.579Z,15.23
2022-08-27T09:10:18.260Z,14.13
2022-08-27T09:15:29.849Z,13.87
2022-08-27T09:20:36.637Z,12.83
2022-08-27T09:25:45.076Z,12.57
2022-08-27T09:30:50.604Z,12.93
2022-08-27T09:35:56.406Z,12.60
2022-08-27T09:41:11.007Z,13.63
2022-08-27T09:46:22.350Z,13.63
2022-08-27T09:51:31.128Z,13.83
2022-08-27T09:56:39.765Z,13.20
2022-08-27T10:02:01.193Z,13.77
2022-08-27T10:07:20.694Z,12.70
2022-08-27T10:12:47.342Z,12.83
2022-08-27T10:17:58.671Z,12.53
2022-08-27T10:23:38.826Z,12.13
2022-08-27T10:29:04.149Z,11.43
2022-08-27T10:34:38.295Z,12.60
2022-08-27T10:39:48.659Z,13.33
2022-08-27T10:45:06.345Z,12.27
2022-08-27T10:50:41.155Z,13.73
2022-08-27T10:55:56.365Z,12.07
2022-08-27T11:01:21.592Z,12.57
2022-08-27T11:06:36.149Z,11.83
2022-08-27T11:17:04.596Z,13.13
2022-08-27T11:22:26.701Z,14.00
2022-08-27T11:27:34.825Z,15.33
2022-08-27T11:33:07.153Z,15.27
2022-08-27T11:38:34.133Z,16.53
2022-08-27T11:43:40.939Z,16.63
2022-08-27T11:48:49.549Z,16.90
2022-08-27T11:54:00.631Z,16.63
2022-08-27T11:59:30.726Z,16.63
2022-08-27T12:04:40.135Z,16.10
2022-08-27T12:09:54.621Z,14.70
2022-08-27T12:15:06.192Z,14.73
2022-08-27T12:20:29.603Z,14.17
2022-08-27T12:25:35.268Z,15.43
2022-08-27T12:30:43.905Z,15.23
2022-08-27T12:35:52.707Z,13.47
2022-08-27T12:41:00.945Z,14.80
2022-08-27T12:46:09.897Z,14.07
2022-08-27T12:51:21.216Z,14.90
2022-08-27T12:56:42.241Z,15.20
2022-08-27T13:02:17.254Z,14.20
2022-08-27T13:07:33.023Z,15.07
2022-08-27T13:12:38.811Z,14.75
2022-08-27T13:17:47.922Z,14.33
2022-08-27T13:22:56.528Z,16.23
2022-08-27T13:28:15.250Z,15.47
2022-08-27T13:33:28.239Z,13.45
2022-08-27T13:38:36.841Z,14.35
2022-08-27T13:43:45.434Z,16.57
2022-08-27T13:48:54.128Z,15.70
2022-08-27T13:54:16.177Z,18.63
2022-08-27T13:59:24.964Z,20.10
2022-08-27T14:04:42.629Z,18.40
2022-08-27T14:10:09.888Z,17.00
2022-08-27T14:15:36.023Z,17.73
2022-08-27T14:20:41.598Z,17.60
2022-08-27T14:25:48.354Z,16.63
2022-08-27T14:30:54.259Z,16.33
2022-08-27T14:36:01.259Z,16.23
2022-08-27T14:41:06.928Z,17.47
2022-08-27T14:46:16.562Z,15.50
2022-08-27T14:51:25.320Z,14.77
2022-08-27T14:56:32.634Z,15.50
2022-08-27T15:01:38.761Z,13.13
2022-08-27T15:06:44.584Z,12.93
2022-08-27T15:11:51.486Z,12.60
2022-08-27T15:16:57.619Z,13.10
2022-08-27T15:22:16.969Z,13.23
2022-08-27T15:27:23.003Z,12.60
2022-08-27T15:32:33.529Z,11.93
2022-08-27T15:37:39.690Z,12.57
2022-08-27T15:42:45.610Z,13.20
2022-08-27T15:47:51.224Z,12.67
2022-08-27T15:53:03.744Z,12.37
2022-08-27T15:58:10.848Z,12.60
2022-08-27T16:03:17.839Z,12.13
2022-08-27T16:08:23.462Z,12.20
2022-08-27T16:13:38.084Z,13.13
2022-08-27T16:18:44.545Z,12.93
2022-08-27T16:23:50.868Z,13.20
2022-08-27T16:28:56.410Z,14.03
2022-08-27T16:34:02.499Z,13.60
2022-08-27T16:39:08.462Z,13.77
2022-08-27T16:44:14.053Z,13.53
2022-08-27T16:49:37.822Z,15.90
2022-08-27T16:54:43.476Z,14.73
2022-08-27T16:59:49.056Z,15.97
2022-08-27T17:04:58.430Z,15.00
2022-08-27T17:10:05.774Z,14.43
2022-08-27T17:15:10.524Z,14.50
2022-08-27T17:20:19.399Z,13.43
2022-08-27T17:25:28.825Z,13.93
2022-08-27T17:30:32.419Z,13.67
2022-08-27T17:35:38.749Z,13.53
2022-08-27T17:40:52.130Z,13.70
2022-08-27T17:45:56.875Z,13.80
2022-08-27T17:51:02.607Z,15.60
2022-08-27T17:56:08.490Z,16.50
2022-08-27T18:01:15.326Z,16.37
2022-08-27T18:06:20.941Z,15.07
2022-08-27T18:11:27.353Z,15.43
2022-08-27T18:16:33.545Z,12.93
2022-08-27T18:21:46.787Z,13.57
2022-08-27T18:26:53.839Z,14.20
2022-08-27T18:31:59.523Z,13.43
2022-08-27T18:37:05.123Z,12.00
2022-08-27T18:42:12.189Z,11.83
2022-08-27T18:47:17.746Z,11.10
2022-08-27T18:52:24.446Z,11.60
2022-08-27T18:57:30.553Z,10.53
2022-08-27T19:02:36.980Z,11.03
2022-08-27T19:07:42.950Z,11.20
2022-08-27T19:12:48.856Z,9.40
2022-08-27T19:17:56.941Z,9.73
2022-08-27T19:23:02.645Z,9.03
2022-08-27T19:28:08.715Z,9.43
2022-08-27T19:33:14.501Z,11.33
2022-08-27T19:38:20.667Z,11.07
2022-08-27T19:43:26.433Z,9.80
2022-08-27T19:48:32.409Z,9.20
2022-08-27T19:53:38.588Z,8.57
2022-08-27T19:58:45.688Z,8.83
2022-08-27T20:03:51.483Z,8.93
2022-08-27T20:08:57.444Z,8.83
2022-08-27T20:14:03.306Z,9.10
2022-08-27T20:19:09.401Z,8.33
2022-08-27T20:24:14.984Z,8.47
2022-08-27T20:29:32.729Z,7.07
2022-08-27T20:34:29.687Z,7.57
2022-08-27T20:39:35.252Z,6.50
2022-08-27T20:44:41.305Z,6.33
2022-08-27T20:49:46.962Z,6.23
2022-08-27T20:54:52.453Z,5.63
2022-08-27T21:00:16.230Z,5.70
2022-08-27T21:05:22.451Z,5.87
2022-08-27T21:10:28.062Z,5.10
2022-08-27T21:15:33.829Z,5.77
2022-08-27T21:20:39.825Z,5.50
2022-08-27T21:25:45.370Z,5.57
2022-08-27T21:30:50.826Z,5.17
2022-08-27T21:35:56.412Z,5.10
2022-08-27T21:41:02.172Z,4.43
2022-08-27T21:46:08.138Z,4.30
2022-08-27T21:51:24.442Z,5.30
2022-08-27T21:56:24.090Z,4.60
2022-08-27T22:01:29.814Z,4.67
2022-08-27T22:06:35.624Z,4.07
2022-08-27T22:11:41.900Z,3.77
2022-08-27T22:16:49.304Z,4.40
2022-08-27T22:21:54.874Z,3.60
2022-08-27T22:27:01.154Z,3.70
2022-08-27T22:32:08.460Z,3.60
2022-08-27T22:37:14.030Z,3.43
2022-08-27T22:42:19.694Z,9.80
2022-08-27T22:47:25.874Z,15.60
2022-08-27T22:52:31.510Z,9.73
2022-08-27T22:57:37.043Z,9.17
2022-08-27T23:02:43.240Z,5.73
2022-08-27T23:07:49.316Z,5.80
2022-08-27T23:12:56.593Z,4.90
2022-08-27T23:18:02.239Z,6.07
2022-08-27T23:23:08.205Z,5.80
2022-08-27T23:28:15.669Z,6.10
2022-08-27T23:33:22.184Z,5.60
2022-08-27T23:38:28.280Z,5.57
2022-08-27T23:43:33.865Z,5.73
2022-08-27T23:48:39.858Z,4.83
2022-08-27T23:53:45.587Z,5.33
2022-08-27T23:58:51.715Z,5.10
